aviador You're here:

PATQ Decoded Metar

ATQASUK BURNELL in AK, USA
Report Time2018-01-18 09:56:00
UTC Time2018-01-18 10:03:59
Flight Rules lifr LIFR
Wind060° at 07 kt
W.Decomp.*RWY 06: 6.6 kt HW 2.4 kt LCW
W.Rank060° ranks 4
Current wind is below 060° avg. (10.8)
Visibility805 m
Phenomena:Light Snow
Freezing Fog
Clouds:N/A
Expected CloudBase > 400 ft AGL from Temp-Dew spread
CeilingNone
Temp-7°C (ISA -22)
Dew Point-8°C (93% RH)
AAT-12.4°C
QNH993 hPa
Density Alt-1,873 ft
Elevation95 ft
Report Wrong Elevation
Raw Report
PATQ 180956Z AUTO 06007KT 1/2SM -SN FZFG M07/M08 A2933 RMK AO2
UPB21E54SNB12E21B54 SLP939 P0000 T10721078 FZRANO TSNO $=

Extra information for PATQ:More info

Metar Taf Metar & Taf Last 4 Metars F.Rules Stats Wind Profile Meteogram Temp Stats Airport Information Weather charts Add Link Nearby VenuesMetar ALERT Operation Metar Decoded Social comments

AIRNAV info for PATQ